Time;durP1;ratioP1;P1;durP2;ratioP2;P2;SDS_P1;SDS_P2;PMS_P1;PMS_P2;Temp;Humidity;BMP_temperature;BMP_pressure;BME280_temperature;BME280_humidity;BME280_pressure;Samples;Min_cycle;Max_cycle;Signal;HPM_P1;HPM_P2
2023/03/14 00:01:47;;;;;;;26.05;4.63;;;9.30;99.90;;;;;;4985801;28;20077;-95
2023/03/14 00:04:12;;;;;;;24.33;4.78;;;9.30;99.90;;;;;;5005193;28;20050;-96
2023/03/14 00:06:38;;;;;;;26.90;5.13;;;9.30;99.90;;;;;;4989893;28;20096;-95
2023/03/14 00:09:04;;;;;;;21.52;4.70;;;9.30;99.90;;;;;;4975914;28;20141;-96
2023/03/14 00:11:29;;;;;;;19.80;3.83;;;9.40;99.90;;;;;;4975122;28;20078;-96
2023/03/14 00:13:55;;;;;;;18.45;3.45;;;9.40;99.90;;;;;;4990934;28;20034;-96
2023/03/14 00:16:21;;;;;;;23.75;4.05;;;9.40;99.90;;;;;;4990961;28;20046;-96
2023/03/14 00:18:46;;;;;;;13.57;3.80;;;9.40;99.90;;;;;;5007657;28;20026;-96
2023/03/14 00:21:13;;;;;;;19.35;3.45;;;9.40;99.90;;;;;;4994395;28;20485;-96
2023/03/14 00:23:40;;;;;;;26.40;4.50;;;9.40;99.90;;;;;;4990788;28;20061;-96
2023/03/14 00:26:10;;;;;;;17.63;3.72;;;9.50;99.90;;;;;;4992080;28;20448;-95
2023/03/14 00:28:36;;;;;;;18.95;3.80;;;9.60;99.90;;;;;;5007758;28;20044;-96
2023/03/14 00:31:09;;;;;;;23.52;3.60;;;9.60;99.90;;;;;;4980912;28;20481;-96
2023/03/14 00:33:35;;;;;;;20.30;4.05;;;9.90;99.90;;;;;;5000999;28;20060;-96
2023/03/14 00:36:04;;;;;;;22.45;3.80;;;9.70;99.90;;;;;;4988409;28;20065;-96
2023/03/14 00:38:31;;;;;;;24.85;4.45;;;9.80;99.90;;;;;;4982744;28;20035;-96
2023/03/14 00:40:56;;;;;;;26.48;4.05;;;9.90;99.90;;;;;;4982328;28;20093;-95
2023/03/14 00:43:23;;;;;;;14.65;2.83;;;9.80;99.90;;;;;;4979173;28;20026;-96
2023/03/14 00:45:50;;;;;;;17.50;3.17;;;9.90;99.90;;;;;;4983199;28;20125;-96
2023/03/14 00:48:16;;;;;;;20.60;3.50;;;10.00;99.90;;;;;;4983983;28;20481;-96
2023/03/14 00:50:41;;;;;;;19.33;3.92;;;10.00;99.90;;;;;;4980423;28;20053;-96
2023/03/14 00:53:07;;;;;;;19.17;4.03;;;10.00;99.90;;;;;;4973997;28;20031;-96
2023/03/14 00:55:37;;;;;;;16.33;3.20;;;10.00;99.90;;;;;;4978595;28;20108;-95
2023/03/14 00:58:03;;;;;;;17.15;3.42;;;10.10;99.90;;;;;;4985364;28;20050;-96
2023/03/14 01:00:28;;;;;;;19.02;3.70;;;10.10;99.90;;;;;;4989284;28;20061;-96
2023/03/14 01:02:54;;;;;;;17.85;3.28;;;10.10;99.90;;;;;;4987783;28;20511;-96
2023/03/14 01:05:21;;;;;;;18.63;4.43;;;10.10;99.90;;;;;;4984226;28;20038;-96
2023/03/14 01:07:47;;;;;;;19.15;4.18;;;10.20;99.90;;;;;;4981992;28;20050;-96
2023/03/14 01:10:13;;;;;;;14.27;3.35;;;10.10;99.90;;;;;;4981461;28;20034;-96
2023/03/14 01:12:38;;;;;;;12.23;3.20;;;10.10;99.90;;;;;;4982175;28;20046;-96
2023/03/14 01:15:05;;;;;;;14.70;3.10;;;10.10;99.90;;;;;;4979040;28;20046;-96
2023/03/14 01:17:30;;;;;;;16.00;3.22;;;10.10;99.90;;;;;;4988141;28;20034;-96
2023/03/14 01:19:56;;;;;;;19.75;3.95;;;10.10;99.90;;;;;;4983725;28;20104;-96
2023/03/14 01:22:21;;;;;;;22.42;4.28;;;10.10;99.90;;;;;;4986303;28;20042;-95
2023/03/14 01:24:47;;;;;;;18.17;3.15;;;10.10;99.90;;;;;;4979108;28;20512;-96
2023/03/14 01:27:13;;;;;;;19.88;4.18;;;10.10;99.90;;;;;;4982276;28;20405;-96
2023/03/14 01:29:38;;;;;;;20.52;3.95;;;10.20;99.90;;;;;;4983651;28;20184;-96
2023/03/14 01:32:05;;;;;;;18.88;3.38;;;10.10;99.90;;;;;;4983244;28;20043;-94
2023/03/14 01:34:30;;;;;;;12.73;2.50;;;10.20;99.90;;;;;;4986453;28;20046;-96
2023/03/14 01:36:56;;;;;;;17.08;3.20;;;10.20;99.90;;;;;;5002278;28;20049;-96
2023/03/14 01:39:21;;;;;;;15.43;3.38;;;10.20;99.90;;;;;;4985089;28;20046;-96
2023/03/14 01:41:47;;;;;;;16.90;2.83;;;10.30;99.90;;;;;;4989010;28;20400;-95
2023/03/14 01:44:14;;;;;;;13.68;2.78;;;10.20;99.90;;;;;;4995268;28;20658;-96
2023/03/14 01:46:45;;;;;;;13.48;2.63;;;10.20;99.90;;;;;;4987615;28;20054;-96
2023/03/14 01:49:34;;;;;;;16.67;3.40;;;10.20;99.90;;;;;;4990636;28;20070;-96
2023/03/14 01:52:27;;;;;;;12.77;2.58;;;10.30;99.90;;;;;;5004184;28;20034;-96
2023/03/14 01:55:05;;;;;;;13.75;2.35;;;10.20;99.90;;;;;;4999763;28;20042;-96
2023/03/14 01:57:47;;;;;;;14.32;3.00;;;10.20;99.90;;;;;;5006507;28;20034;-96
2023/03/14 02:00:20;;;;;;;11.00;2.80;;;10.20;99.90;;;;;;4996764;28;20066;-95
2023/03/14 02:02:53;;;;;;;16.52;2.85;;;10.10;99.90;;;;;;4982332;28;20049;-95
2023/03/14 02:05:25;;;;;;;19.40;2.50;;;10.30;99.90;;;;;;4989592;28;20049;-94
2023/03/14 02:07:56;;;;;;;13.98;2.83;;;10.20;99.90;;;;;;5011819;28;20152;-95
2023/03/14 02:10:25;;;;;;;16.20;2.63;;;10.10;99.90;;;;;;4993540;28;20057;-95
2023/03/14 02:12:53;;;;;;;10.82;2.35;;;10.10;99.90;;;;;;5006195;28;20115;-95
2023/03/14 02:15:18;;;;;;;12.45;2.33;;;10.10;99.90;;;;;;5008091;28;20034;-96
2023/03/14 02:17:45;;;;;;;12.32;2.30;;;10.00;99.90;;;;;;4994532;28;20043;-95
2023/03/14 02:20:29;;;;;;;13.50;2.47;;;10.00;99.90;;;;;;5007092;28;20034;-95
2023/03/14 02:22:55;;;;;;;14.52;2.22;;;10.90;99.90;;;;;;5005970;28;20052;-94
2023/03/14 02:25:26;;;;;;;19.02;2.53;;;10.10;99.90;;;;;;5008332;28;20042;-96
2023/03/14 02:27:52;;;;;;;12.82;3.45;;;10.00;99.90;;;;;;4987738;28;20042;-95
2023/03/14 02:30:21;;;;;;;11.98;2.38;;;9.90;99.90;;;;;;4995149;28;20038;-95
2023/03/14 02:32:50;;;;;;;8.10;2.03;;;9.90;99.90;;;;;;5000757;28;20046;-94
2023/03/14 02:35:20;;;;;;;14.35;2.13;;;9.90;99.90;;;;;;4994127;28;20045;-95
2023/03/14 02:37:51;;;;;;;15.48;2.30;;;9.90;99.90;;;;;;5003551;28;20054;-94
2023/03/14 02:40:17;;;;;;;13.13;2.70;;;9.90;99.90;;;;;;4979082;28;20104;-94
2023/03/14 02:42:43;;;;;;;10.10;2.05;;;9.90;99.90;;;;;;5007990;28;20038;-94
2023/03/14 02:45:08;;;;;;;9.80;2.15;;;9.90;99.90;;;;;;4988180;28;20096;-95
2023/03/14 02:47:36;;;;;;;9.10;2.42;;;9.90;99.90;;;;;;4998829;28;20481;-95
2023/03/14 02:50:09;;;;;;;13.27;2.33;;;9.90;99.90;;;;;;5007807;28;20041;-94
2023/03/14 02:52:35;;;;;;;14.00;2.47;;;9.90;99.90;;;;;;4993256;28;20046;-95
2023/03/14 02:55:01;;;;;;;9.38;2.47;;;9.90;99.90;;;;;;4976403;28;20038;-94
2023/03/14 02:57:26;;;;;;;8.48;2.35;;;9.90;99.90;;;;;;4994191;28;20037;-96
2023/03/14 02:59:52;;;;;;;8.05;1.65;;;9.80;99.90;;;;;;5011536;28;20706;-94
2023/03/14 03:02:18;;;;;;;10.15;1.67;;;9.80;99.90;;;;;;5004849;28;20022;-94
2023/03/14 03:04:43;;;;;;;9.05;2.35;;;9.80;99.90;;;;;;5034698;28;20444;-95
2023/03/14 03:07:09;;;;;;;10.55;2.00;;;9.80;99.90;;;;;;5032253;28;20049;-95
2023/03/14 03:09:34;;;;;;;13.88;2.00;;;9.70;99.90;;;;;;5029438;28;20045;-95
2023/03/14 03:12:00;;;;;;;10.45;1.73;;;9.80;99.90;;;;;;4997764;28;20426;-95
2023/03/14 03:14:26;;;;;;;10.15;2.13;;;9.70;99.90;;;;;;4980537;28;20481;-95
2023/03/14 03:16:51;;;;;;;7.32;1.85;;;9.80;99.90;;;;;;4987364;28;20053;-94
2023/03/14 03:19:17;;;;;;;9.82;3.10;;;9.70;99.90;;;;;;4988453;28;20049;-94
2023/03/14 03:21:44;;;;;;;11.00;2.72;;;9.80;99.90;;;;;;5004501;28;20042;-95
2023/03/14 03:24:09;;;;;;;14.52;3.17;;;9.80;99.90;;;;;;4989868;28;20512;-94
2023/03/14 03:26:36;;;;;;;12.30;3.35;;;9.80;99.90;;;;;;4989054;28;20041;-94
2023/03/14 03:29:02;;;;;;;20.75;3.97;;;9.70;99.90;;;;;;4990593;28;20184;-94
2023/03/14 03:31:28;;;;;;;13.25;3.05;;;9.70;99.90;;;;;;5004187;28;20043;-95
2023/03/14 03:33:53;;;;;;;17.38;3.50;;;9.70;99.90;;;;;;5000123;28;20049;-93
2023/03/14 03:36:23;;;;;;;20.95;5.03;;;9.70;99.90;;;;;;4985884;28;20049;-95
2023/03/14 03:38:49;;;;;;;16.48;4.43;;;9.90;99.90;;;;;;5006311;28;20042;-94
2023/03/14 03:41:15;;;;;;;15.15;4.50;;;9.70;99.90;;;;;;5004179;28;20041;-94
2023/03/14 03:43:40;;;;;;;14.30;4.72;;;9.60;99.90;;;;;;4990806;28;20045;-94
2023/03/14 03:46:06;;;;;;;16.17;3.50;;;9.60;99.90;;;;;;5004578;28;20089;-94
2023/03/14 03:48:33;;;;;;;17.13;4.80;;;9.50;99.90;;;;;;5003177;28;20513;-93
2023/03/14 03:50:58;;;;;;;14.40;4.50;;;9.50;99.90;;;;;;5005423;28;20042;-93
2023/03/14 03:53:24;;;;;;;18.38;5.15;;;9.50;99.90;;;;;;5003142;28;20030;-94
2023/03/14 03:55:50;;;;;;;16.92;4.05;;;9.50;99.90;;;;;;4995613;28;20037;-93
2023/03/14 03:58:15;;;;;;;18.45;4.53;;;9.40;99.90;;;;;;4993278;28;20092;-94
2023/03/14 04:00:41;;;;;;;20.75;4.20;;;9.40;99.90;;;;;;4993974;28;20046;-94
2023/03/14 04:03:07;;;;;;;13.50;4.80;;;9.40;99.90;;;;;;5010728;28;20042;-94
2023/03/14 04:05:34;;;;;;;13.65;4.60;;;9.30;99.90;;;;;;4999177;28;20096;-94
2023/03/14 04:07:59;;;;;;;12.95;4.25;;;9.30;99.90;;;;;;4994315;28;20050;-93
2023/03/14 04:10:25;;;;;;;18.75;4.88;;;9.30;99.90;;;;;;4980306;28;20033;-93
2023/03/14 04:12:51;;;;;;;14.68;4.80;;;9.30;99.90;;;;;;5010411;28;20045;-94
2023/03/14 04:15:17;;;;;;;17.13;5.28;;;9.40;99.90;;;;;;5007569;28;20038;-94
2023/03/14 04:17:43;;;;;;;12.07;4.32;;;9.30;99.90;;;;;;5009452;28;20037;-93
2023/03/14 04:20:10;;;;;;;15.85;5.38;;;9.30;99.90;;;;;;4993683;28;20645;-94
2023/03/14 04:22:36;;;;;;;17.13;4.40;;;9.30;99.90;;;;;;5010090;28;20045;-94
2023/03/14 04:25:03;;;;;;;14.45;5.45;;;9.30;99.90;;;;;;5002018;28;20042;-93
2023/03/14 04:27:29;;;;;;;12.77;4.65;;;9.20;99.90;;;;;;4981358;28;20056;-92
2023/03/14 04:29:54;;;;;;;14.23;5.32;;;9.20;99.90;;;;;;5007367;28;20249;-93
2023/03/14 04:32:21;;;;;;;11.88;4.65;;;9.20;99.90;;;;;;4986466;28;20107;-94
2023/03/14 04:34:46;;;;;;;12.25;4.78;;;9.20;99.90;;;;;;5004089;28;20038;-94
2023/03/14 04:37:12;;;;;;;15.90;5.20;;;9.20;99.90;;;;;;5002885;28;20060;-94
2023/03/14 04:39:38;;;;;;;15.30;5.85;;;9.20;99.90;;;;;;5005656;28;20065;-93
2023/03/14 04:42:03;;;;;;;18.15;5.47;;;9.20;99.90;;;;;;5000436;28;20504;-94
2023/03/14 04:44:29;;;;;;;16.65;4.75;;;9.10;99.90;;;;;;4986902;28;20061;-94
2023/03/14 04:46:55;;;;;;;16.40;5.35;;;9.10;99.90;;;;;;4984989;28;20103;-93
2023/03/14 04:49:20;;;;;;;15.45;5.28;;;9.10;99.90;;;;;;4982042;28;20029;-94
2023/03/14 04:51:46;;;;;;;14.35;4.20;;;9.50;99.90;;;;;;4985320;28;20042;-94
2023/03/14 04:54:12;;;;;;;10.88;4.43;;;9.20;99.90;;;;;;4981501;28;20034;-94
2023/03/14 04:56:37;;;;;;;15.02;5.10;;;9.10;99.90;;;;;;4980498;28;20694;-94
2023/03/14 04:59:04;;;;;;;14.40;4.68;;;9.10;99.90;;;;;;5002724;28;20125;-94
2023/03/14 05:01:29;;;;;;;13.85;4.88;;;9.10;99.90;;;;;;4998027;28;20033;-94
2023/03/14 05:03:55;;;;;;;12.57;4.50;;;9.10;99.90;;;;;;4997498;28;20037;-94
2023/03/14 05:06:20;;;;;;;14.88;4.40;;;9.30;99.90;;;;;;5004976;28;20033;-95
2023/03/14 05:08:46;;;;;;;15.30;5.43;;;9.00;99.90;;;;;;5004866;28;20108;-93
2023/03/14 05:11:12;;;;;;;10.60;4.10;;;9.40;99.90;;;;;;5002615;28;20044;-95
2023/03/14 05:13:38;;;;;;;14.90;4.75;;;9.00;99.90;;;;;;4981978;28;20058;-94
2023/03/14 05:16:07;;;;;;;12.23;4.72;;;9.00;99.90;;;;;;5009691;28;20045;-95
2023/03/14 05:18:32;;;;;;;14.35;4.65;;;9.00;99.90;;;;;;4992274;28;20100;-94
2023/03/14 05:20:59;;;;;;;16.45;4.95;;;9.10;99.90;;;;;;5013536;28;20042;-93
2023/03/14 05:23:24;;;;;;;14.48;4.65;;;9.00;99.90;;;;;;4995148;28;20041;-94
2023/03/14 05:25:50;;;;;;;15.02;5.13;;;9.10;99.90;;;;;;4980731;28;20465;-93
2023/03/14 05:28:15;;;;;;;11.77;4.68;;;9.00;99.90;;;;;;5006777;28;20045;-93
2023/03/14 05:30:41;;;;;;;17.88;5.47;;;9.00;99.90;;;;;;5013355;28;20049;-94
2023/03/14 05:33:07;;;;;;;19.38;5.93;;;9.00;99.90;;;;;;4989247;28;20132;-93
2023/03/14 05:35:32;;;;;;;14.65;5.20;;;9.00;99.90;;;;;;4989664;28;20046;-94
2023/03/14 05:37:58;;;;;;;14.95;4.93;;;9.00;99.90;;;;;;5008086;28;20041;-94
2023/03/14 05:40:24;;;;;;;12.52;5.60;;;9.20;99.90;;;;;;4975061;28;20501;-93
2023/03/14 05:42:49;;;;;;;16.80;5.70;;;9.00;99.90;;;;;;5006761;28;20042;-94
2023/03/14 05:45:15;;;;;;;14.48;5.68;;;9.00;99.90;;;;;;5011334;28;20040;-95
2023/03/14 05:47:41;;;;;;;15.07;5.32;;;9.10;99.90;;;;;;4989682;28;20127;-93
2023/03/14 05:50:07;;;;;;;18.08;6.20;;;9.00;99.90;;;;;;4989906;28;20049;-93
2023/03/14 05:52:32;;;;;;;15.13;5.45;;;9.00;99.90;;;;;;4993616;28;20117;-95
2023/03/14 05:54:58;;;;;;;16.23;6.30;;;8.90;99.90;;;;;;5142374;23;20100;-95
2023/03/14 05:57:23;;;;;;;22.15;5.95;;;9.00;99.90;;;;;;5002754;28;20054;-93
2023/03/14 05:59:51;;;;;;;17.63;6.03;;;9.80;99.90;;;;;;4995385;28;20049;-94
2023/03/14 06:02:26;;;;;;;15.35;5.93;;;8.90;99.90;;;;;;4996290;28;20038;-92
2023/03/14 06:04:55;;;;;;;14.30;5.80;;;9.00;99.90;;;;;;4989021;28;20188;-91
2023/03/14 06:07:21;;;;;;;15.23;5.40;;;9.00;99.90;;;;;;4999095;28;20572;-92
2023/03/14 06:09:47;;;;;;;9.93;5.07;;;8.90;99.90;;;;;;4982206;28;20125;-92
2023/03/14 06:12:12;;;;;;;15.18;5.28;;;9.10;99.90;;;;;;4978856;28;20046;-94
2023/03/14 06:14:38;;;;;;;12.02;5.72;;;8.90;99.90;;;;;;5000246;28;20125;-94
2023/03/14 06:17:07;;;;;;;14.35;5.70;;;9.70;99.90;;;;;;5004233;28;20073;-95
2023/03/14 06:19:32;;;;;;;15.77;6.57;;;8.90;99.90;;;;;;4976569;28;20046;-94
2023/03/14 06:22:01;;;;;;;15.82;6.05;;;8.90;99.90;;;;;;4982175;28;20551;-95
2023/03/14 06:24:36;;;;;;;15.52;5.60;;;8.90;99.90;;;;;;4981910;28;20034;-95
2023/03/14 06:27:04;;;;;;;15.80;5.45;;;8.90;99.90;;;;;;4999036;28;20235;-96
2023/03/14 06:29:30;;;;;;;11.80;4.88;;;8.90;99.90;;;;;;4979285;28;20046;-93
2023/03/14 06:31:59;;;;;;;8.23;3.83;;;8.90;99.90;;;;;;4993278;28;20096;-95
2023/03/14 06:34:27;;;;;;;12.40;4.25;;;8.90;99.90;;;;;;5005686;28;20049;-94
2023/03/14 06:36:56;;;;;;;8.95;3.53;;;8.90;99.90;;;;;;4968507;28;20054;-92
2023/03/14 06:39:21;;;;;;;12.38;4.40;;;8.90;99.90;;;;;;4996426;28;20757;-94
2023/03/14 06:41:47;;;;;;;7.55;3.75;;;8.60;99.90;;;;;;5004825;28;20034;-96
2023/03/14 06:44:13;;;;;;;11.20;4.50;;;8.90;99.90;;;;;;5001850;28;20030;-96
2023/03/14 06:46:38;;;;;;;11.75;4.55;;;8.90;99.90;;;;;;4990610;28;20078;-96
2023/03/14 06:49:04;;;;;;;11.60;5.15;;;8.90;99.90;;;;;;4997466;28;20041;-95
2023/03/14 06:51:30;;;;;;;12.15;4.90;;;8.90;99.90;;;;;;4984944;28;20042;-94
2023/03/14 06:53:55;;;;;;;11.77;4.20;;;8.90;99.90;;;;;;4964151;28;20053;-91
2023/03/14 06:56:21;;;;;;;7.53;2.50;;;8.90;99.90;;;;;;4994162;28;20076;-90
2023/03/14 06:58:47;;;;;;;5.20;1.77;;;8.80;99.90;;;;;;4981700;28;20552;-90
2023/03/14 07:01:21;;;;;;;5.88;1.85;;;8.70;99.90;;;;;;4986849;28;20060;-92
2023/03/14 07:03:46;;;;;;;8.40;1.88;;;8.60;99.90;;;;;;4993251;28;20497;-92
2023/03/14 07:06:12;;;;;;;7.07;1.67;;;8.60;99.90;;;;;;4978660;28;20045;-92
2023/03/14 07:08:39;;;;;;;14.20;1.65;;;8.50;99.90;;;;;;4983279;28;20042;-93
2023/03/14 07:11:05;;;;;;;11.00;2.40;;;8.40;99.90;;;;;;4976169;28;20050;-93
2023/03/14 07:13:30;;;;;;;7.40;1.25;;;8.40;99.90;;;;;;4968390;28;20121;-92
2023/03/14 07:15:56;;;;;;;10.80;1.77;;;8.30;99.90;;;;;;4971032;28;20049;-93
2023/03/14 07:18:21;;;;;;;7.38;1.35;;;8.20;99.90;;;;;;5003000;28;20042;-91
2023/03/14 07:20:47;;;;;;;7.75;1.15;;;8.20;99.90;;;;;;4984781;28;20042;-91
2023/03/14 07:23:13;;;;;;;7.30;1.38;;;8.10;99.90;;;;;;5000641;28;20113;-85
2023/03/14 07:25:39;;;;;;;4.95;1.00;;;8.00;99.90;;;;;;4974982;28;20447;-90
2023/03/14 07:28:04;;;;;;;8.85;0.95;;;8.00;99.90;;;;;;4968339;28;20117;-91
2023/03/14 07:30:30;;;;;;;8.45;1.42;;;7.90;99.90;;;;;;4974402;28;20097;-91
2023/03/14 07:32:56;;;;;;;11.80;1.23;;;7.80;99.90;;;;;;4990273;28;20045;-90
2023/03/14 07:35:22;;;;;;;10.88;1.33;;;7.80;99.90;;;;;;4978951;28;20034;-95
2023/03/14 07:37:47;;;;;;;6.53;1.08;;;7.70;99.90;;;;;;4974439;28;20097;-94
2023/03/14 07:40:14;;;;;;;6.75;0.90;;;7.60;99.90;;;;;;4976136;28;20522;-94
2023/03/14 07:42:41;;;;;;;7.45;1.00;;;7.50;99.90;;;;;;4999699;28;20082;-93
2023/03/14 07:45:09;;;;;;;7.65;0.88;;;7.50;99.90;;;;;;4978943;28;20398;-93
2023/03/14 07:47:35;;;;;;;5.78;1.30;;;7.50;99.90;;;;;;4984155;28;20107;-94
2023/03/14 07:50:02;;;;;;;3.00;0.88;;;7.40;99.90;;;;;;4981605;28;20038;-93
2023/03/14 07:52:27;;;;;;;4.30;1.55;;;7.30;99.90;;;;;;4986150;28;20559;-92
2023/03/14 07:54:53;;;;;;;7.18;1.25;;;7.30;99.90;;;;;;4973516;28;20083;-92
2023/03/14 07:57:19;;;;;;;4.50;0.60;;;7.20;99.90;;;;;;4999161;28;20080;-93
2023/03/14 07:59:44;;;;;;;3.28;1.10;;;7.20;99.90;;;;;;4976467;28;20044;-93
2023/03/14 08:02:11;;;;;;;5.07;1.63;;;7.10;99.90;;;;;;4977453;28;20105;-93
2023/03/14 08:04:38;;;;;;;8.93;1.35;;;7.10;99.90;;;;;;4992095;28;20046;-92
2023/03/14 08:07:04;;;;;;;4.20;1.02;;;7.10;99.90;;;;;;4993765;28;20093;-92
2023/03/14 08:09:29;;;;;;;4.20;0.88;;;7.00;99.90;;;;;;4962555;28;20054;-90
2023/03/14 08:11:55;;;;;;;2.55;0.88;;;7.10;99.90;;;;;;4978496;28;20047;-92
2023/03/14 08:14:24;;;;;;;2.35;0.52;;;7.00;99.90;;;;;;4980036;28;20476;-93
2023/03/14 08:16:50;;;;;;;3.83;0.50;;;7.00;99.90;;;;;;4978766;28;20077;-93
2023/03/14 08:19:16;;;;;;;2.83;0.50;;;6.90;99.90;;;;;;4999782;28;20128;-92
2023/03/14 08:21:41;;;;;;;2.78;0.70;;;7.00;99.90;;;;;;4976174;28;20120;-93
2023/03/14 08:24:07;;;;;;;3.90;0.60;;;6.90;99.90;;;;;;4992861;28;20069;-93
2023/03/14 08:26:33;;;;;;;4.90;0.52;;;7.00;99.90;;;;;;4982337;28;20458;-92
2023/03/14 08:28:59;;;;;;;4.03;0.68;;;7.00;99.90;;;;;;4992043;28;20034;-92
2023/03/14 08:31:24;;;;;;;3.40;0.60;;;7.00;99.90;;;;;;4977590;28;20034;-92
2023/03/14 08:33:51;;;;;;;2.85;0.55;;;7.00;99.90;;;;;;4979362;28;20397;-92
2023/03/14 08:36:17;;;;;;;5.28;0.70;;;7.00;99.90;;;;;;4973912;28;20038;-93
2023/03/14 08:38:43;;;;;;;5.03;0.60;;;7.00;99.90;;;;;;4990575;28;20046;-92
2023/03/14 08:41:09;;;;;;;2.80;0.50;;;7.00;99.90;;;;;;4986258;28;20138;-93
2023/03/14 08:43:35;;;;;;;2.90;0.40;;;7.00;99.90;;;;;;4979339;28;20034;-92
2023/03/14 08:46:02;;;;;;;3.95;0.40;;;7.00;99.90;;;;;;4974286;28;20046;-92
2023/03/14 08:48:29;;;;;;;6.82;0.57;;;7.00;99.90;;;;;;4994289;28;20034;-92
2023/03/14 08:50:56;;;;;;;2.33;0.30;;;7.10;99.90;;;;;;4985725;28;20049;-92
2023/03/14 08:53:22;;;;;;;3.35;0.60;;;7.10;99.90;;;;;;4997191;28;20045;-92
2023/03/14 08:55:53;;;;;;;6.03;0.70;;;7.10;99.90;;;;;;4982731;28;20050;-91
2023/03/14 08:58:19;;;;;;;2.25;0.52;;;7.10;99.90;;;;;;4993050;28;20100;-93
2023/03/14 09:00:44;;;;;;;6.18;0.68;;;7.20;99.90;;;;;;4975353;28;20039;-92
2023/03/14 09:03:22;;;;;;;5.03;0.60;;;7.20;99.90;;;;;;4969094;28;20033;-92
2023/03/14 09:05:49;;;;;;;7.88;0.60;;;7.20;99.90;;;;;;4982704;28;20058;-93
2023/03/14 09:08:15;;;;;;;4.00;0.63;;;7.20;99.90;;;;;;4996907;28;20046;-92
2023/03/14 09:10:40;;;;;;;9.90;1.00;;;7.30;99.90;;;;;;4992080;28;20402;-93
2023/03/14 09:13:06;;;;;;;11.95;1.35;;;7.30;99.90;;;;;;4984891;28;20041;-93
2023/03/14 09:15:32;;;;;;;7.97;1.40;;;7.30;99.90;;;;;;4974458;28;20121;-93
2023/03/14 09:17:58;;;;;;;10.75;1.95;;;7.40;99.90;;;;;;4996863;28;20042;-91
2023/03/14 09:20:24;;;;;;;6.60;0.80;;;7.50;99.90;;;;;;4983709;28;20575;-93
2023/03/14 09:22:49;;;;;;;8.95;1.15;;;7.40;99.90;;;;;;4966057;28;20073;-93
2023/03/14 09:25:15;;;;;;;9.65;1.50;;;7.40;99.90;;;;;;4988406;28;20042;-93
2023/03/14 09:27:44;;;;;;;11.48;1.35;;;7.40;99.90;;;;;;4985829;28;20129;-93
2023/03/14 09:30:10;;;;;;;9.50;1.40;;;7.40;99.90;;;;;;4998142;28;20150;-92
2023/03/14 09:32:36;;;;;;;13.68;1.65;;;7.50;99.90;;;;;;4960903;28;20042;-92
2023/03/14 09:35:02;;;;;;;9.32;1.60;;;7.50;99.90;;;;;;5006206;28;20090;-93
2023/03/14 09:37:28;;;;;;;13.02;2.20;;;7.60;99.90;;;;;;4999340;28;20442;-93
2023/03/14 09:39:53;;;;;;;13.95;1.85;;;7.60;99.90;;;;;;4992203;28;20046;-92
2023/03/14 09:42:25;;;;;;;14.65;2.47;;;7.70;99.90;;;;;;4980080;28;20197;-92
2023/03/14 09:44:59;;;;;;;15.07;2.05;;;7.60;99.90;;;;;;4979277;28;20118;-92
2023/03/14 09:47:26;;;;;;;10.77;1.83;;;7.60;99.90;;;;;;4986461;28;20046;-92
2023/03/14 09:49:52;;;;;;;15.18;2.75;;;7.50;99.90;;;;;;4984338;28;20050;-92
2023/03/14 09:52:23;;;;;;;13.10;2.20;;;7.50;99.90;;;;;;4985111;28;20493;-92
2023/03/14 09:55:19;;;;;;;12.65;2.25;;;7.50;99.90;;;;;;4974834;28;20057;-92
2023/03/14 09:57:48;;;;;;;7.70;1.23;;;7.50;99.90;;;;;;4972818;28;20073;-93
2023/03/14 10:00:19;;;;;;;13.27;1.70;;;7.50;99.90;;;;;;4991613;28;20074;-91
2023/03/14 10:02:59;;;;;;;11.50;2.08;;;7.50;99.90;;;;;;5004930;28;20052;-92
2023/03/14 10:05:29;;;;;;;11.82;2.15;;;7.50;99.90;;;;;;4978003;28;20069;-92
2023/03/14 10:07:55;;;;;;;13.50;2.45;;;7.60;99.90;;;;;;4978112;28;20478;-91
2023/03/14 10:10:24;;;;;;;15.57;2.88;;;7.60;99.90;;;;;;4995304;28;20049;-92
2023/03/14 10:12:57;;;;;;;13.73;2.00;;;7.60;99.90;;;;;;4984303;28;20069;-92
2023/03/14 10:15:41;;;;;;;15.32;2.00;;;7.60;99.90;;;;;;4977474;28;20030;-92
2023/03/14 10:18:14;;;;;;;20.33;2.85;;;7.60;99.90;;;;;;4995862;28;20050;-92
2023/03/14 10:20:43;;;;;;;17.08;1.83;;;7.70;99.90;;;;;;4995539;28;20076;-92
2023/03/14 10:23:12;;;;;;;15.80;2.22;;;7.70;99.90;;;;;;5002606;28;20042;-92
2023/03/14 10:25:40;;;;;;;15.07;1.77;;;7.60;99.90;;;;;;4982363;28;20050;-91
2023/03/14 10:28:24;;;;;;;10.32;1.73;;;7.60;99.90;;;;;;4992878;28;20057;-92
2023/03/14 10:30:49;;;;;;;15.93;2.28;;;7.60;99.90;;;;;;4994879;28;20046;-92
2023/03/14 10:33:22;;;;;;;27.98;3.60;;;7.70;99.90;;;;;;4980859;28;20168;-92
2023/03/14 10:35:57;;;;;;;13.23;2.30;;;7.60;99.90;;;;;;4986305;28;20076;-92
2023/03/14 10:38:26;;;;;;;12.75;2.08;;;7.60;99.90;;;;;;4963828;28;20798;-91
2023/03/14 10:40:53;;;;;;;13.05;2.13;;;7.60;99.90;;;;;;4976767;28;20092;-92
2023/03/14 10:43:26;;;;;;;22.15;3.05;;;7.70;99.90;;;;;;4996946;28;20053;-92
2023/03/14 10:46:16;;;;;;;16.08;3.38;;;7.70;99.90;;;;;;4994305;28;20111;-91
2023/03/14 10:48:43;;;;;;;15.80;1.50;;;7.80;99.90;;;;;;4983242;28;20049;-92
2023/03/14 10:51:17;;;;;;;13.68;1.92;;;7.80;99.90;;;;;;4998462;28;20069;-91
2023/03/14 10:54:04;;;;;;;14.80;2.38;;;7.80;99.90;;;;;;4984283;28;20046;-91
2023/03/14 10:56:36;;;;;;;11.55;1.55;;;7.80;99.90;;;;;;4999502;28;20087;-92
2023/03/14 10:59:03;;;;;;;10.10;2.20;;;7.80;99.90;;;;;;4995244;28;20038;-91
2023/03/14 11:01:32;;;;;;;12.27;2.05;;;7.70;99.90;;;;;;4982674;28;20088;-92
2023/03/14 11:04:36;;;;;;;11.93;1.70;;;7.70;99.90;;;;;;4989075;28;20117;-92
2023/03/14 11:07:26;;;;;;;12.70;1.85;;;7.70;99.90;;;;;;4978650;28;20061;-91
2023/03/14 11:10:08;;;;;;;12.30;1.85;;;7.90;99.90;;;;;;5010551;28;20041;-92
2023/03/14 11:13:02;;;;;;;12.18;2.60;;;7.90;99.90;;;;;;5014595;28;20031;-92
2023/03/14 11:15:53;;;;;;;11.53;2.03;;;7.90;99.90;;;;;;4985049;28;20050;-92
2023/03/14 11:18:22;;;;;;;12.57;1.55;;;7.90;99.90;;;;;;5000015;28;20054;-92
2023/03/14 11:20:57;;;;;;;10.52;1.73;;;7.90;99.90;;;;;;4980317;28;20520;-93
2023/03/14 11:23:55;;;;;;;12.43;2.08;;;8.00;99.90;;;;;;4981595;28;20041;-91
2023/03/14 11:26:55;;;;;;;13.70;2.13;;;8.00;99.90;;;;;;4979142;28;20042;-92
2023/03/14 11:29:24;;;;;;;14.30;1.65;;;7.90;99.90;;;;;;5001846;28;20093;-93
2023/03/14 11:31:55;;;;;;;11.00;1.95;;;7.80;99.90;;;;;;4998966;28;20034;-92
2023/03/14 11:34:33;;;;;;;9.73;1.25;;;8.00;99.90;;;;;;4978407;28;20052;-91
2023/03/14 11:37:06;;;;;;;9.70;1.52;;;8.10;99.90;;;;;;4994747;28;20046;-91
2023/03/14 11:40:01;;;;;;;7.13;1.25;;;8.10;99.90;;;;;;4963816;28;20038;-92
2023/03/14 11:42:30;;;;;;;7.75;1.40;;;8.00;99.90;;;;;;4983570;28;20129;-93
2023/03/14 11:44:58;;;;;;;13.80;1.50;;;7.90;99.90;;;;;;4977157;28;20411;-93
2023/03/14 11:47:41;;;;;;;4.97;1.00;;;7.80;99.90;;;;;;4995532;28;20038;-91
2023/03/14 11:50:22;;;;;;;8.38;1.05;;;7.90;99.90;;;;;;4993746;28;20116;-92
2023/03/14 11:53:01;;;;;;;7.45;1.20;;;8.80;99.90;;;;;;4997892;28;20062;-90
2023/03/14 11:55:32;;;;;;;14.68;1.17;;;8.20;99.90;;;;;;4995084;28;20061;-93
2023/03/14 11:58:03;;;;;;;9.32;1.00;;;8.20;99.90;;;;;;4977445;28;20065;-91
2023/03/14 12:00:30;;;;;;;7.00;0.98;;;8.30;99.90;;;;;;4987513;28;20092;-92
2023/03/14 12:03:23;;;;;;;4.18;0.90;;;8.40;99.90;;;;;;5012746;28;20034;-92
2023/03/14 12:06:16;;;;;;;8.13;1.05;;;8.50;99.90;;;;;;4976022;28;20038;-92
2023/03/14 12:08:57;;;;;;;8.05;1.00;;;8.60;99.90;;;;;;4979175;28;20053;-92
2023/03/14 12:11:47;;;;;;;7.97;1.05;;;8.70;99.90;;;;;;4966262;28;20039;-92
2023/03/14 12:14:27;;;;;;;8.23;0.90;;;8.80;99.90;;;;;;5003695;28;20041;-93
2023/03/14 12:16:57;;;;;;;5.40;0.80;;;9.00;99.90;;;;;;4980632;28;20121;-93
2023/03/14 12:19:22;;;;;;;5.70;1.20;;;9.10;99.90;;;;;;4964534;28;20100;-91
2023/03/14 12:22:13;;;;;;;9.45;1.35;;;9.10;99.90;;;;;;4986709;28;20046;-96
2023/03/14 12:24:47;;;;;;;7.38;1.10;;;9.00;99.90;;;;;;5008982;28;20184;-90
2023/03/14 12:27:33;;;;;;;10.05;1.35;;;8.90;99.90;;;;;;4971745;28;20069;-90
2023/03/14 12:30:01;;;;;;;10.05;1.15;;;8.80;99.90;;;;;;4999959;28;20073;-91
2023/03/14 12:32:26;;;;;;;8.35;1.08;;;8.80;99.90;;;;;;4979441;28;20046;-91
2023/03/14 12:34:52;;;;;;;5.68;1.10;;;8.80;99.90;;;;;;4978241;28;20158;-91
2023/03/14 12:37:37;;;;;;;10.05;1.52;;;8.90;99.90;;;;;;4973496;28;20042;-91
2023/03/14 12:40:11;;;;;;;11.65;1.15;;;9.00;99.90;;;;;;4991558;28;20050;-91
2023/03/14 12:42:59;;;;;;;8.65;1.20;;;9.00;99.90;;;;;;4996916;28;20501;-91
2023/03/14 12:45:33;;;;;;;7.82;1.15;;;8.90;99.90;;;;;;4974858;28;20493;-93
2023/03/14 12:48:26;;;;;;;5.38;1.02;;;8.90;99.90;;;;;;4987631;28;20042;-91
2023/03/14 12:50:55;;;;;;;6.65;0.90;;;9.00;99.90;;;;;;4972192;28;20046;-90
2023/03/14 12:53:50;;;;;;;12.00;1.40;;;9.10;99.90;;;;;;4983595;28;20088;-94
2023/03/14 12:56:24;;;;;;;8.98;1.45;;;9.30;99.90;;;;;;4994063;28;20057;-93
2023/03/14 12:59:02;;;;;;;;;;;9.30;99.90;;;;;;4975565;28;20046;-94